createdAt,value
2023-05-14T00:03:16.039Z,58.48
2023-05-14T00:08:19.098Z,58.80
2023-05-14T00:13:22.038Z,58.90
2023-05-14T00:18:25.089Z,59.12
2023-05-14T00:23:28.581Z,59.19
2023-05-14T00:28:31.532Z,59.16
2023-05-14T00:33:35.195Z,59.17
2023-05-14T00:38:38.133Z,59.04
2023-05-14T00:43:41.189Z,58.84
2023-05-14T00:48:45.075Z,58.88
2023-05-14T00:53:48.965Z,58.71
2023-05-14T00:58:51.872Z,59.24
2023-05-14T01:03:57.976Z,59.29
2023-05-14T01:09:25.134Z,59.19
2023-05-14T01:14:59.851Z,59.39
2023-05-14T01:20:03.103Z,59.73
2023-05-14T01:25:07.197Z,59.79
2023-05-14T01:30:26.370Z,59.61
2023-05-14T01:35:31.350Z,60.15
2023-05-14T01:40:36.343Z,60.37
2023-05-14T01:45:39.332Z,60.51
2023-05-14T01:50:42.450Z,60.24
2023-05-14T01:55:45.445Z,60.43
2023-05-14T02:00:48.361Z,59.97
2023-05-14T02:05:51.372Z,59.91
2023-05-14T02:10:54.278Z,60.26
2023-05-14T02:15:57.227Z,60.28
2023-05-14T02:21:00.265Z,60.68
2023-05-14T02:26:03.254Z,60.87
2023-05-14T02:31:06.398Z,60.95
2023-05-14T02:36:09.364Z,61.13
2023-05-14T02:41:12.320Z,61.24
2023-05-14T02:46:15.362Z,61.39
2023-05-14T02:51:21.351Z,61.85
2023-05-14T02:56:24.313Z,61.76
2023-05-14T03:01:27.352Z,62.18
2023-05-14T03:06:31.542Z,62.42
2023-05-14T03:11:34.548Z,62.32
2023-05-14T03:16:37.595Z,61.95
2023-05-14T03:21:40.684Z,61.77
2023-05-14T03:26:43.616Z,61.65
2023-05-14T03:31:46.590Z,61.68
2023-05-14T03:36:50.735Z,61.29
2023-05-14T03:41:53.780Z,60.28
2023-05-14T03:46:56.725Z,59.50
2023-05-14T03:51:59.632Z,58.67
2023-05-14T03:57:05.755Z,57.30
2023-05-14T04:02:08.693Z,55.61
2023-05-14T04:07:11.716Z,55.66
2023-05-14T04:12:14.663Z,55.71
2023-05-14T04:17:17.704Z,55.64
2023-05-14T04:22:20.656Z,56.02
2023-05-14T04:27:23.796Z,56.30
2023-05-14T04:32:27.280Z,56.54
2023-05-14T04:37:31.190Z,55.47
2023-05-14T04:42:34.321Z,54.80
2023-05-14T04:47:37.302Z,53.09
2023-05-14T04:52:40.307Z,52.66
2023-05-14T04:57:43.334Z,52.19
2023-05-14T05:02:46.340Z,51.57
2023-05-14T05:07:49.252Z,50.44
2023-05-14T05:12:52.195Z,50.34
2023-05-14T05:17:55.237Z,49.32
2023-05-14T05:22:58.228Z,48.62
2023-05-14T05:28:01.249Z,48.17
2023-05-14T05:33:05.051Z,48.35
2023-05-14T05:38:08.092Z,48.70
2023-05-14T05:43:11.088Z,47.83
2023-05-14T05:48:14.131Z,47.79
2023-05-14T05:53:17.015Z,48.17
2023-05-14T05:58:19.864Z,47.99
2023-05-14T06:03:23.393Z,47.59
2023-05-14T06:08:26.389Z,47.76
2023-05-14T06:13:29.298Z,46.83
2023-05-14T06:18:32.250Z,47.30
2023-05-14T06:23:35.169Z,46.48
2023-05-14T06:28:38.090Z,46.59
2023-05-14T06:33:41.058Z,46.51
2023-05-14T06:38:43.942Z,46.21
2023-05-14T06:43:46.862Z,45.97
2023-05-14T06:48:49.851Z,46.24
2023-05-14T06:53:54.316Z,45.56
2023-05-14T06:58:57.244Z,44.98
2023-05-14T07:04:00.814Z,43.97
2023-05-14T07:09:03.990Z,44.78
2023-05-14T07:14:06.878Z,43.69
2023-05-14T07:19:09.922Z,42.88
2023-05-14T07:24:12.775Z,43.87
2023-05-14T07:29:15.858Z,43.13
2023-05-14T07:34:19.503Z,42.05
2023-05-14T07:39:22.475Z,42.69
2023-05-14T07:44:25.400Z,42.92
2023-05-14T07:49:28.358Z,42.69
2023-05-14T07:54:31.146Z,41.48
2023-05-14T07:59:34.085Z,40.53
2023-05-14T08:04:37.279Z,41.70
2023-05-14T08:09:40.671Z,41.19
2023-05-14T08:14:43.630Z,40.66
2023-05-14T08:19:46.993Z,41.02
2023-05-14T08:24:52.953Z,41.64
2023-05-14T08:29:55.850Z,41.69
2023-05-14T08:34:58.834Z,41.62
2023-05-14T08:40:05.088Z,41.14
2023-05-14T08:45:16.804Z,41.22
2023-05-14T08:50:22.572Z,40.31
2023-05-14T08:55:28.277Z,41.52
2023-05-14T09:00:31.253Z,40.54
2023-05-14T09:05:34.217Z,40.09
2023-05-14T09:10:36.997Z,39.46
2023-05-14T09:15:41.430Z,39.73
2023-05-14T09:20:47.380Z,38.93
2023-05-14T09:25:50.327Z,38.79
2023-05-14T09:30:53.256Z,38.00
2023-05-14T09:35:59.798Z,37.38
2023-05-14T09:41:03.152Z,37.94
2023-05-14T09:46:06.035Z,38.52
2023-05-14T09:51:11.667Z,36.70
2023-05-14T09:56:14.916Z,38.02
2023-05-14T10:01:20.748Z,37.23
2023-05-14T10:06:32.528Z,38.09
2023-05-14T10:11:39.070Z,37.19
2023-05-14T10:16:49.086Z,37.09
2023-05-14T10:22:05.623Z,36.69
2023-05-14T10:27:08.962Z,36.78
2023-05-14T10:32:14.966Z,36.34
2023-05-14T10:37:22.056Z,37.57
2023-05-14T10:42:43.432Z,37.51
2023-05-14T10:47:48.031Z,37.47
2023-05-14T10:52:51.691Z,38.21
2023-05-14T10:57:54.693Z,37.81
2023-05-14T11:02:57.825Z,36.13
2023-05-14T11:08:04.063Z,38.10
2023-05-14T11:13:07.105Z,37.45
2023-05-14T11:18:10.730Z,37.28
2023-05-14T11:23:16.317Z,36.35
2023-05-14T11:28:22.263Z,37.04
2023-05-14T11:33:27.892Z,36.96
2023-05-14T11:38:30.834Z,37.53
2023-05-14T11:43:36.647Z,38.96
2023-05-14T11:48:39.756Z,37.50
2023-05-14T11:53:45.948Z,36.86
2023-05-14T11:58:50.508Z,36.90
2023-05-14T12:03:53.587Z,37.50
2023-05-14T12:08:57.251Z,38.54
2023-05-14T12:14:03.099Z,37.95
2023-05-14T12:19:06.124Z,37.35
2023-05-14T12:24:18.117Z,37.73
2023-05-14T12:29:22.170Z,37.67
2023-05-14T12:34:25.090Z,38.07
2023-05-14T12:39:28.175Z,37.30
2023-05-14T12:44:31.357Z,37.20
2023-05-14T12:49:34.411Z,38.37
2023-05-14T12:54:42.775Z,37.36
2023-05-14T12:59:45.906Z,37.44
2023-05-14T13:04:48.689Z,37.80
2023-05-14T13:09:51.644Z,38.00
2023-05-14T13:14:54.414Z,37.93
2023-05-14T13:19:57.345Z,37.56
2023-05-14T13:25:00.335Z,37.88
2023-05-14T13:30:04.519Z,38.21
2023-05-14T13:35:08.009Z,37.99
2023-05-14T13:40:11.693Z,38.52
2023-05-14T13:45:14.651Z,38.59
2023-05-14T13:50:17.640Z,37.50
2023-05-14T13:55:20.743Z,36.74
2023-05-14T14:00:23.823Z,37.60
2023-05-14T14:05:28.572Z,37.92
2023-05-14T14:10:34.721Z,37.81
2023-05-14T14:15:37.766Z,37.90
2023-05-14T14:20:43.451Z,37.49
2023-05-14T14:25:46.412Z,37.72
2023-05-14T14:30:50.590Z,38.27
2023-05-14T14:35:53.560Z,37.13
2023-05-14T14:40:57.204Z,37.24
2023-05-14T14:46:00.796Z,38.35
2023-05-14T14:51:04.663Z,38.17
2023-05-14T14:56:07.675Z,38.37
2023-05-14T15:01:13.513Z,38.75
2023-05-14T15:06:16.496Z,38.79
2023-05-14T15:11:19.288Z,39.11
2023-05-14T15:16:22.283Z,39.24
2023-05-14T15:21:25.530Z,39.27
2023-05-14T15:26:28.384Z,38.56
2023-05-14T15:31:31.770Z,38.49
2023-05-14T15:36:35.632Z,39.12
2023-05-14T15:41:38.863Z,39.46
2023-05-14T15:46:41.769Z,39.60
2023-05-14T15:51:45.201Z,39.46
2023-05-14T15:56:48.895Z,39.32
2023-05-14T16:01:53.336Z,39.82
2023-05-14T16:07:03.259Z,40.27
2023-05-14T16:12:07.333Z,39.57
2023-05-14T16:17:10.289Z,39.35
2023-05-14T16:22:13.030Z,39.56
2023-05-14T16:27:18.519Z,39.64
2023-05-14T16:32:22.861Z,40.04
2023-05-14T16:37:25.790Z,39.89
2023-05-14T16:42:28.699Z,39.87
2023-05-14T16:47:31.530Z,40.46
2023-05-14T16:52:34.736Z,40.74
2023-05-14T16:57:37.514Z,41.06
2023-05-14T17:02:40.619Z,40.89
2023-05-14T17:07:43.661Z,40.91
2023-05-14T17:12:46.618Z,41.01
2023-05-14T17:17:48.509Z,41.19
2023-05-14T17:22:51.392Z,41.76
2023-05-14T17:27:54.290Z,42.11
2023-05-14T17:32:57.301Z,42.21
2023-05-14T17:38:00.709Z,41.89
2023-05-14T17:43:03.699Z,41.69
2023-05-14T17:48:08.951Z,41.70
2023-05-14T17:53:11.904Z,41.71
2023-05-14T17:58:16.417Z,41.56
2023-05-14T18:03:20.542Z,41.69
2023-05-14T18:08:23.586Z,41.84
2023-05-14T18:13:27.094Z,41.99
2023-05-14T18:18:31.051Z,41.90
2023-05-14T18:23:34.027Z,42.03
2023-05-14T18:28:37.346Z,42.04
2023-05-14T18:33:40.240Z,42.25
2023-05-14T18:38:43.281Z,42.43
2023-05-14T18:43:46.277Z,42.69
2023-05-14T18:48:49.937Z,42.82
2023-05-14T18:53:53.112Z,42.94
2023-05-14T18:58:58.161Z,42.94
2023-05-14T19:04:03.094Z,42.98
2023-05-14T19:09:07.694Z,43.11
2023-05-14T19:14:11.467Z,43.35
2023-05-14T19:19:14.545Z,43.21
2023-05-14T19:24:17.638Z,43.16
2023-05-14T19:29:20.594Z,43.33
2023-05-14T19:34:23.537Z,43.37
2023-05-14T19:39:26.527Z,43.33
2023-05-14T19:44:29.551Z,43.28
2023-05-14T19:49:32.475Z,43.22
2023-05-14T19:54:38.424Z,43.27
2023-05-14T19:59:41.523Z,43.32
2023-05-14T20:04:46.116Z,43.29
2023-05-14T20:09:49.259Z,43.31
2023-05-14T20:14:54.880Z,43.60
2023-05-14T20:19:58.218Z,43.66
2023-05-14T20:25:01.251Z,43.70
2023-05-14T20:30:05.523Z,43.85
2023-05-14T20:35:08.743Z,43.84
2023-05-14T20:40:14.777Z,43.87
2023-05-14T20:45:18.048Z,44.02
2023-05-14T20:50:21.717Z,44.11
2023-05-14T20:55:24.859Z,44.40
2023-05-14T21:00:27.800Z,44.61
2023-05-14T21:05:31.169Z,44.99
2023-05-14T21:10:34.208Z,45.41
2023-05-14T21:15:37.386Z,45.56
2023-05-14T21:20:40.545Z,45.52
2023-05-14T21:25:44.286Z,45.64
2023-05-14T21:30:47.252Z,45.71
2023-05-14T21:35:50.409Z,45.81
2023-05-14T21:40:53.331Z,45.82
2023-05-14T21:45:56.634Z,45.88
2023-05-14T21:50:59.456Z,45.94
2023-05-14T21:56:02.251Z,45.91
2023-05-14T22:01:05.161Z,45.98
2023-05-14T22:06:07.997Z,45.98
2023-05-14T22:11:10.991Z,46.16
2023-05-14T22:16:14.378Z,46.54
2023-05-14T22:21:17.413Z,46.70
2023-05-14T22:26:21.769Z,46.61
2023-05-14T22:31:24.917Z,46.58
2023-05-14T22:36:27.940Z,47.19
2023-05-14T22:41:30.918Z,47.79
2023-05-14T22:46:33.951Z,48.28
2023-05-14T22:51:36.860Z,48.32
2023-05-14T22:56:39.872Z,49.27
2023-05-14T23:01:42.883Z,49.54
2023-05-14T23:06:45.960Z,49.80
2023-05-14T23:11:48.930Z,50.25
2023-05-14T23:16:51.899Z,50.51
2023-05-14T23:21:54.815Z,50.50
2023-05-14T23:26:57.789Z,50.12
2023-05-14T23:32:00.807Z,50.26
2023-05-14T23:37:03.858Z,50.27
2023-05-14T23:42:06.964Z,50.63
2023-05-14T23:47:10.322Z,51.21
2023-05-14T23:52:13.244Z,51.77
2023-05-14T23:57:16.221Z,51.85
